createdAt,value
2019-04-22T00:02:29.922Z,70.70
2019-04-22T00:05:11.592Z,71.50
2019-04-22T00:07:56.886Z,71.50
2019-04-22T00:10:32.259Z,72.10
2019-04-22T00:13:02.800Z,72.30
2019-04-22T00:15:27.926Z,72.30
2019-04-22T00:18:07.856Z,72.20
2019-04-22T00:20:35.505Z,72.40
2019-04-22T00:23:10.095Z,72.50
2019-04-22T00:25:44.106Z,72.80
2019-04-22T00:28:08.711Z,72.80
2019-04-22T00:30:43.437Z,73.20
2019-04-22T00:33:19.133Z,73.30
2019-04-22T00:35:53.160Z,73.30
2019-04-22T00:41:05.782Z,74.40
2019-04-22T00:43:22.171Z,75.20
2019-04-22T00:45:47.914Z,75.40
2019-04-22T00:48:27.863Z,76.10
2019-04-22T00:51:01.647Z,76.50
2019-04-22T00:53:30.088Z,76.20
2019-04-22T00:56:20.201Z,75.90
2019-04-22T01:03:50.189Z,77.20
2019-04-22T01:08:53.021Z,77.30
2019-04-22T01:11:24.534Z,77.10
2019-04-22T01:13:53.338Z,77.80
2019-04-22T01:16:23.973Z,77.70
2019-04-22T01:18:54.876Z,78.30
2019-04-22T01:21:29.016Z,78.80
2019-04-22T01:23:52.261Z,79.30
2019-04-22T01:26:24.235Z,78.90
2019-04-22T01:28:53.513Z,79.30
2019-04-22T01:31:19.610Z,79.90
2019-04-22T01:33:58.615Z,80.00
2019-04-22T01:36:38.456Z,81.40
2019-04-22T01:39:10.784Z,81.20
2019-04-22T01:41:48.997Z,82.30
2019-04-22T01:44:21.605Z,82.90
2019-04-22T01:49:21.383Z,83.40
2019-04-22T01:54:29.793Z,84.10
2019-04-22T01:56:54.056Z,85.00
2019-04-22T01:59:16.456Z,85.90
2019-04-22T02:01:55.127Z,86.10
2019-04-22T02:04:35.090Z,85.80
2019-04-22T02:07:01.828Z,86.50
2019-04-22T02:14:34.368Z,87.90
2019-04-22T02:19:35.707Z,88.40
2019-04-22T02:22:15.032Z,89.10
2019-04-22T02:24:47.702Z,89.40
2019-04-22T02:27:17.690Z,89.50
2019-04-22T02:29:43.443Z,90.50
2019-04-22T02:32:28.194Z,90.60
2019-04-22T02:37:18.586Z,90.00
2019-04-22T02:39:58.010Z,89.90
2019-04-22T02:42:16.526Z,88.70
2019-04-22T02:47:33.578Z,89.80
2019-04-22T02:50:02.122Z,90.30
2019-04-22T02:55:02.117Z,91.40
2019-04-22T03:00:12.319Z,91.20
2019-04-22T03:03:06.265Z,91.30
2019-04-22T03:05:27.704Z,92.20
2019-04-22T03:07:41.005Z,92.00
2019-04-22T03:10:16.074Z,91.90
2019-04-22T03:12:37.014Z,92.10
2019-04-22T03:15:09.679Z,92.70
2019-04-22T03:20:11.046Z,92.30
2019-04-22T03:22:47.618Z,92.50
2019-04-22T03:30:48.248Z,94.20
2019-04-22T03:45:28.122Z,95.30
2019-04-22T03:55:33.131Z,94.90
2019-04-22T04:00:47.649Z,95.00
2019-04-22T04:05:54.118Z,94.70
2019-04-22T04:08:16.377Z,94.70
2019-04-22T04:13:16.831Z,95.10
2019-04-22T04:15:36.430Z,95.80
2019-04-22T04:18:15.042Z,96.00
2019-04-22T04:21:09.716Z,96.20
2019-04-22T04:23:30.899Z,96.90
2019-04-22T04:26:05.075Z,96.30
2019-04-22T04:30:48.592Z,97.40
2019-04-22T04:33:24.978Z,97.50
2019-04-22T04:38:21.750Z,97.10
2019-04-22T04:40:57.366Z,97.40
2019-04-22T04:43:33.358Z,97.70
2019-04-22T04:48:42.831Z,98.10
2019-04-22T04:53:24.505Z,98.50
2019-04-22T04:56:10.927Z,98.70
2019-04-22T04:58:47.756Z,98.90
2019-04-22T05:01:14.845Z,98.30
2019-04-22T05:03:58.080Z,98.50
2019-04-22T05:06:13.132Z,98.20
2019-04-22T05:11:32.219Z,98.30
2019-04-22T05:13:49.704Z,98.30
2019-04-22T05:16:25.388Z,97.90
2019-04-22T05:18:44.819Z,97.60
2019-04-22T05:21:19.330Z,97.70
2019-04-22T05:23:47.713Z,97.20
2019-04-22T05:26:22.370Z,97.30
2019-04-22T05:28:47.136Z,97.60
2019-04-22T05:31:16.318Z,97.80
2019-04-22T05:33:51.042Z,98.30
2019-04-22T05:36:20.339Z,98.80
2019-04-22T05:41:17.743Z,98.50
2019-04-22T05:43:49.829Z,99.10
2019-04-22T05:46:20.754Z,98.10
2019-04-22T05:48:53.537Z,98.00
2019-04-22T05:51:28.075Z,97.40
2019-04-22T05:53:57.112Z,96.60
2019-04-22T05:56:37.510Z,96.20
2019-04-22T05:59:02.511Z,95.60
2019-04-22T06:03:58.784Z,95.40
2019-04-22T06:06:32.195Z,95.60
2019-04-22T06:11:29.833Z,94.30
2019-04-22T06:14:04.457Z,94.20
2019-04-22T06:16:38.438Z,93.50
2019-04-22T06:19:07.399Z,93.30
2019-04-22T06:21:38.524Z,92.80
2019-04-22T06:24:10.943Z,92.90
2019-04-22T06:29:13.633Z,92.10
2019-04-22T06:31:55.964Z,91.50
2019-04-22T06:36:45.207Z,91.10
2019-04-22T06:39:17.338Z,90.30
2019-04-22T06:46:49.209Z,89.40
2019-04-22T06:49:18.830Z,87.20
2019-04-22T06:51:46.813Z,85.60
2019-04-22T06:54:14.097Z,85.20
2019-04-22T06:56:48.531Z,83.70
2019-04-22T06:59:25.153Z,82.30
2019-04-22T07:01:55.027Z,81.40
2019-04-22T07:04:25.587Z,80.70
2019-04-22T07:11:57.594Z,78.70
2019-04-22T07:14:22.485Z,78.10
2019-04-22T07:16:56.179Z,77.80
2019-04-22T07:19:33.748Z,76.40
2019-04-22T07:22:03.268Z,76.30
2019-04-22T07:24:43.834Z,75.50
2019-04-22T07:27:10.593Z,74.80
2019-04-22T07:29:44.646Z,73.90
2019-04-22T07:32:39.729Z,74.60
2019-04-22T07:34:47.396Z,72.90
2019-04-22T07:37:29.702Z,72.90
2019-04-22T07:42:19.006Z,71.70
2019-04-22T07:47:18.925Z,69.40
2019-04-22T07:52:24.655Z,71.10
2019-04-22T07:54:53.089Z,70.80
2019-04-22T07:59:57.194Z,68.60
2019-04-22T08:02:26.652Z,68.80
2019-04-22T08:05:07.422Z,68.60
2019-04-22T08:07:24.415Z,68.90
2019-04-22T08:10:00.358Z,67.40
2019-04-22T08:12:36.557Z,67.70
2019-04-22T08:15:03.081Z,69.80
2019-04-22T08:20:05.541Z,68.20
2019-04-22T08:22:26.105Z,67.60
2019-04-22T08:25:01.359Z,67.80
2019-04-22T08:27:31.869Z,67.70
2019-04-22T08:30:06.555Z,66.60
2019-04-22T08:32:37.577Z,65.70
2019-04-22T08:35:04.912Z,65.70
2019-04-22T08:40:12.487Z,63.30
2019-04-22T08:43:36.369Z,61.90
2019-04-22T08:45:28.531Z,60.40
2019-04-22T08:52:42.156Z,60.10
2019-04-22T08:55:20.761Z,60.20
2019-04-22T08:58:06.764Z,60.50
2019-04-22T09:00:15.458Z,60.30
2019-04-22T09:02:48.197Z,62.80
2019-04-22T09:05:35.909Z,59.50
2019-04-22T09:08:09.350Z,59.50
2019-04-22T09:10:17.174Z,58.00
2019-04-22T09:15:26.342Z,58.00
2019-04-22T09:17:55.981Z,58.60
2019-04-22T09:20:28.651Z,57.90
2019-04-22T09:23:05.531Z,58.00
2019-04-22T09:25:29.455Z,57.20
2019-04-22T09:27:58.796Z,58.10
2019-04-22T09:30:37.156Z,56.80
2019-04-22T09:33:08.195Z,57.40
2019-04-22T09:35:37.613Z,56.50
2019-04-22T09:40:43.129Z,55.90
2019-04-22T09:43:13.348Z,57.40
2019-04-22T09:45:43.386Z,56.50
2019-04-22T09:48:16.634Z,56.40
2019-04-22T09:53:14.840Z,55.70
2019-04-22T09:55:50.028Z,57.90
2019-04-22T09:58:20.762Z,58.40
2019-04-22T10:01:20.290Z,57.60
2019-04-22T10:03:45.269Z,58.00
2019-04-22T10:06:22.751Z,58.30
2019-04-22T10:08:52.922Z,54.40
2019-04-22T10:11:23.924Z,54.90
2019-04-22T10:13:47.578Z,56.60
2019-04-22T10:16:20.289Z,55.80
2019-04-22T10:21:26.822Z,55.80
2019-04-22T10:23:54.815Z,54.20
2019-04-22T10:26:33.467Z,53.10
2019-04-22T10:29:08.574Z,53.30
2019-04-22T10:33:53.218Z,54.00
2019-04-22T10:36:09.799Z,53.70
2019-04-22T10:38:40.231Z,51.50
2019-04-22T10:41:10.438Z,50.90
2019-04-22T10:43:41.100Z,51.80
2019-04-22T10:46:10.599Z,51.20
2019-04-22T10:48:40.158Z,49.40
2019-04-22T10:51:10.662Z,49.40
2019-04-22T10:53:39.925Z,48.40
2019-04-22T10:56:09.387Z,49.40
2019-04-22T10:58:38.572Z,49.00
2019-04-22T11:01:07.796Z,49.60
2019-04-22T11:03:37.337Z,48.50
2019-04-22T11:06:07.448Z,48.20
2019-04-22T11:08:44.535Z,48.30
2019-04-22T11:11:21.423Z,49.50
2019-04-22T11:13:39.906Z,47.10
2019-04-22T11:16:09.731Z,46.10
2019-04-22T11:18:39.446Z,46.50
2019-04-22T11:21:09.653Z,45.30
2019-04-22T11:23:38.942Z,45.90
2019-04-22T11:26:08.232Z,46.80
2019-04-22T11:28:38.090Z,45.90
2019-04-22T11:31:08.218Z,45.90
2019-04-22T11:33:38.576Z,47.00
2019-04-22T11:36:10.799Z,47.30
2019-04-22T11:38:45.857Z,45.70
2019-04-22T11:41:12.507Z,45.80
2019-04-22T11:43:42.984Z,45.20
2019-04-22T11:46:13.438Z,44.00
2019-04-22T11:48:42.644Z,46.30
2019-04-22T11:51:11.741Z,43.30
2019-04-22T11:53:41.006Z,44.20
2019-04-22T11:56:11.153Z,43.90
2019-04-22T11:58:40.361Z,44.40
2019-04-22T12:01:10.771Z,44.90
2019-04-22T12:03:41.876Z,47.10
2019-04-22T12:09:41.689Z,44.20
2019-04-22T12:12:11.916Z,44.80
2019-04-22T12:14:42.423Z,43.90
2019-04-22T12:17:11.702Z,43.50
2019-04-22T12:19:42.061Z,44.90
2019-04-22T12:22:11.258Z,44.30
2019-04-22T12:24:40.607Z,44.20
2019-04-22T12:27:10.600Z,43.40
2019-04-22T12:29:40.731Z,44.30
2019-04-22T12:32:11.535Z,43.50
2019-04-22T12:34:41.694Z,42.90
2019-04-22T12:37:14.848Z,43.20
2019-04-22T12:39:43.315Z,42.00
2019-04-22T12:42:13.166Z,41.80
2019-04-22T12:44:44.098Z,41.90
2019-04-22T12:47:14.945Z,41.50
2019-04-22T12:49:49.308Z,41.70
2019-04-22T12:52:24.531Z,42.10
2019-04-22T12:54:46.971Z,41.20
2019-04-22T12:57:16.818Z,41.20
2019-04-22T12:59:47.778Z,42.10
2019-04-22T13:02:18.688Z,41.80
2019-04-22T13:04:47.948Z,41.40
2019-04-22T13:07:17.680Z,41.10
2019-04-22T13:09:47.375Z,42.60
2019-04-22T13:12:17.141Z,42.00
2019-04-22T13:14:46.397Z,41.90
2019-04-22T13:17:17.029Z,42.40
2019-04-22T13:19:47.777Z,43.20
2019-04-22T13:22:18.759Z,43.30
2019-04-22T13:24:48.189Z,43.30
2019-04-22T13:27:17.432Z,43.80
2019-04-22T13:29:46.835Z,44.30
2019-04-22T13:32:16.542Z,43.60
2019-04-22T13:34:51.524Z,43.30
2019-04-22T13:37:17.013Z,44.60
2019-04-22T13:39:46.957Z,44.10
2019-04-22T13:42:20.381Z,44.00
2019-04-22T13:44:47.430Z,44.40
2019-04-22T13:47:35.063Z,44.40
2019-04-22T13:50:23.820Z,43.70
2019-04-22T13:56:25.181Z,45.60
2019-04-22T13:58:48.407Z,45.00
2019-04-22T14:01:12.722Z,46.30
2019-04-22T14:04:07.148Z,46.60
2019-04-22T14:06:36.817Z,46.90
2019-04-22T14:09:09.532Z,46.70
2019-04-22T14:11:46.194Z,45.80
2019-04-22T14:14:10.970Z,46.00
2019-04-22T14:16:40.912Z,46.10
2019-04-22T14:19:10.198Z,45.40
2019-04-22T14:21:41.086Z,46.10
2019-04-22T14:24:13.786Z,46.20
2019-04-22T14:26:54.947Z,46.00
2019-04-22T14:29:13.601Z,45.60
2019-04-22T14:31:42.819Z,45.90
2019-04-22T14:34:13.791Z,45.90
2019-04-22T14:36:43.570Z,45.70
2019-04-22T14:39:12.712Z,45.70
2019-04-22T14:44:27.815Z,46.30
2019-04-22T14:47:15.805Z,45.60
2019-04-22T14:49:38.611Z,46.10
2019-04-22T14:52:12.985Z,45.40
2019-04-22T14:54:31.298Z,44.90
2019-04-22T14:56:48.507Z,44.80
2019-04-22T14:59:18.839Z,44.70
2019-04-22T15:01:48.081Z,44.80
2019-04-22T15:04:17.290Z,44.80
2019-04-22T15:06:48.897Z,43.70
2019-04-22T15:09:17.608Z,44.40
2019-04-22T15:11:58.215Z,43.90
2019-04-22T15:14:17.491Z,42.70
2019-04-22T15:17:06.893Z,43.60
2019-04-22T15:19:56.200Z,43.70
2019-04-22T15:22:26.405Z,44.00
2019-04-22T15:24:56.662Z,43.20
2019-04-22T15:27:28.926Z,43.70
2019-04-22T15:29:57.049Z,43.30
2019-04-22T15:32:27.373Z,43.70
2019-04-22T15:34:57.324Z,44.00
2019-04-22T15:37:28.074Z,44.70
2019-04-22T15:39:58.589Z,44.00
2019-04-22T15:42:30.757Z,44.90
2019-04-22T15:44:59.852Z,45.00
2019-04-22T15:47:29.294Z,45.40
2019-04-22T15:49:58.460Z,46.20
2019-04-22T15:52:33.778Z,46.80
2019-04-22T15:54:58.448Z,46.30
2019-04-22T15:57:28.695Z,46.10
2019-04-22T16:00:14.701Z,45.80
2019-04-22T16:02:29.807Z,45.80
2019-04-22T16:04:59.013Z,45.40
2019-04-22T16:07:29.609Z,45.30
2019-04-22T16:09:59.624Z,45.00
2019-04-22T16:12:37.718Z,45.00
2019-04-22T16:15:01.539Z,45.10
2019-04-22T16:17:30.613Z,44.90
2019-04-22T16:20:01.420Z,44.80
2019-04-22T16:22:34.220Z,44.20
2019-04-22T16:25:11.354Z,43.90
2019-04-22T16:27:42.605Z,43.40
2019-04-22T16:30:13.221Z,44.20
2019-04-22T16:32:43.454Z,43.90
2019-04-22T16:35:14.582Z,44.00
2019-04-22T16:37:43.716Z,43.50
2019-04-22T16:40:12.706Z,43.30
2019-04-22T16:42:49.107Z,43.40
2019-04-22T16:45:13.603Z,43.30
2019-04-22T16:47:43.817Z,42.50
2019-04-22T16:50:14.039Z,44.10
2019-04-22T16:52:43.961Z,43.20
2019-04-22T16:55:14.714Z,43.70
2019-04-22T16:57:44.163Z,42.70
2019-04-22T17:00:14.489Z,42.50
2019-04-22T17:03:13.546Z,43.60
2019-04-22T17:06:11.847Z,43.80
2019-04-22T17:08:42.418Z,43.70
2019-04-22T17:11:12.015Z,44.30
2019-04-22T17:13:42.398Z,44.60
2019-04-22T17:16:12.047Z,45.30
2019-04-22T17:18:41.342Z,45.80
2019-04-22T17:21:11.072Z,46.00
2019-04-22T17:23:47.629Z,46.40
2019-04-22T17:26:18.504Z,46.40
2019-04-22T17:28:49.227Z,46.20
2019-04-22T17:31:18.643Z,46.00
2019-04-22T17:33:48.831Z,46.40
2019-04-22T17:36:18.362Z,47.00
2019-04-22T17:38:55.017Z,47.00
2019-04-22T17:41:30.194Z,47.30
2019-04-22T17:44:14.955Z,47.80
2019-04-22T17:46:41.733Z,48.20
2019-04-22T17:49:21.906Z,48.10
2019-04-22T17:52:10.761Z,48.10
2019-04-22T17:54:44.770Z,47.90
2019-04-22T17:57:09.899Z,48.60
2019-04-22T17:59:45.210Z,48.10
2019-04-22T18:02:13.361Z,48.70
2019-04-22T18:04:35.278Z,49.30
2019-04-22T18:07:23.432Z,48.20
2019-04-22T18:12:27.663Z,49.00
2019-04-22T18:14:59.342Z,49.00
2019-04-22T18:17:25.696Z,48.10
2019-04-22T18:19:51.890Z,48.70
2019-04-22T18:22:19.775Z,48.30
2019-04-22T18:24:53.112Z,48.50
2019-04-22T18:27:40.151Z,47.40
2019-04-22T18:29:58.992Z,47.30
2019-04-22T18:32:20.371Z,47.10
2019-04-22T18:34:50.378Z,46.90
2019-04-22T18:37:26.828Z,46.50
2019-04-22T18:40:03.293Z,46.30
2019-04-22T18:42:27.008Z,46.50
2019-04-22T18:45:20.121Z,46.00
2019-04-22T18:47:32.308Z,45.80
2019-04-22T18:49:59.641Z,45.00
2019-04-22T18:52:54.407Z,44.50
2019-04-22T18:55:28.405Z,44.60
2019-04-22T18:58:02.984Z,43.90
2019-04-22T19:00:23.484Z,44.40
2019-04-22T19:02:59.361Z,43.70
2019-04-22T19:05:40.061Z,43.40
2019-04-22T19:08:23.072Z,42.80
2019-04-22T19:10:58.977Z,43.00
2019-04-22T19:13:51.283Z,42.90
2019-04-22T19:16:10.007Z,42.90
2019-04-22T19:18:31.885Z,43.00
2019-04-22T19:20:59.545Z,43.10
2019-04-22T19:23:28.437Z,43.80
2019-04-22T19:25:52.284Z,43.50
2019-04-22T19:31:06.226Z,44.40
2019-04-22T19:33:34.846Z,44.30
2019-04-22T19:36:08.518Z,44.20
2019-04-22T19:38:21.933Z,44.40
2019-04-22T19:41:13.516Z,44.70
2019-04-22T19:43:33.184Z,45.30
2019-04-22T19:46:01.981Z,45.00
2019-04-22T19:48:44.986Z,44.90
2019-04-22T19:51:18.676Z,45.10
2019-04-22T19:53:42.223Z,45.00
2019-04-22T19:56:06.119Z,45.40
2019-04-22T19:58:42.713Z,44.90
2019-04-22T20:01:39.329Z,44.90
2019-04-22T20:04:31.442Z,44.60
2019-04-22T20:07:06.710Z,44.50
2019-04-22T20:09:39.825Z,44.30
2019-04-22T20:12:04.488Z,44.30
2019-04-22T20:14:35.911Z,43.30
2019-04-22T20:17:02.205Z,44.40
2019-04-22T20:19:45.460Z,44.30
2019-04-22T20:22:09.773Z,44.40
2019-04-22T20:24:27.719Z,44.60
2019-04-22T20:27:14.927Z,44.70
2019-04-22T20:29:41.729Z,45.00
2019-04-22T20:32:20.195Z,45.00
2019-04-22T20:34:51.116Z,45.30
2019-04-22T20:37:25.289Z,45.60
2019-04-22T20:39:48.265Z,45.90
2019-04-22T20:42:29.737Z,46.10
2019-04-22T20:44:51.735Z,46.50
2019-04-22T20:47:19.174Z,46.90
2019-04-22T20:49:54.770Z,47.40
2019-04-22T20:54:49.058Z,47.90
2019-04-22T20:57:23.977Z,48.10
2019-04-22T20:59:51.176Z,48.70
2019-04-22T21:02:18.296Z,48.80
2019-04-22T21:04:46.257Z,49.20
2019-04-22T21:07:23.752Z,49.20
2019-04-22T21:09:59.513Z,49.80
2019-04-22T21:12:20.938Z,50.10
2019-04-22T21:15:06.845Z,50.40
2019-04-22T21:17:30.878Z,50.80
2019-04-22T21:20:10.477Z,51.40
2019-04-22T21:22:33.541Z,51.40
2019-04-22T21:25:04.951Z,52.00
2019-04-22T21:27:42.441Z,52.40
2019-04-22T21:29:58.207Z,52.80
2019-04-22T21:32:38.622Z,53.40
2019-04-22T21:35:18.542Z,53.70
2019-04-22T21:37:43.177Z,54.20
2019-04-22T21:40:11.860Z,54.30
2019-04-22T21:42:48.865Z,54.80
2019-04-22T21:45:14.663Z,55.10
2019-04-22T21:47:57.738Z,55.60
2019-04-22T21:50:37.594Z,55.70
2019-04-22T21:52:59.480Z,56.00
2019-04-22T21:55:25.220Z,56.30
2019-04-22T21:58:09.420Z,56.50
2019-04-22T22:00:43.476Z,56.80
2019-04-22T22:03:12.806Z,57.40
2019-04-22T22:05:30.162Z,57.90
2019-04-22T22:08:04.044Z,58.40
2019-04-22T22:10:42.129Z,58.50
2019-04-22T22:13:11.098Z,58.40
2019-04-22T22:15:42.221Z,58.70
2019-04-22T22:18:10.131Z,59.00
2019-04-22T22:21:02.244Z,59.40
2019-04-22T22:23:25.239Z,59.70
2019-04-22T22:25:45.245Z,60.40
2019-04-22T22:28:37.213Z,60.30
2019-04-22T22:31:09.327Z,60.40
2019-04-22T22:33:18.354Z,60.40
2019-04-22T22:35:51.678Z,60.60
2019-04-22T22:38:26.286Z,61.00
2019-04-22T22:40:36.247Z,61.10
2019-04-22T22:43:15.928Z,61.50
2019-04-22T22:45:44.359Z,61.70
2019-04-22T22:48:38.410Z,61.60
2019-04-22T22:50:58.518Z,61.60
2019-04-22T22:53:41.618Z,61.60
2019-04-22T22:56:05.089Z,61.60
2019-04-22T22:58:34.752Z,61.60
2019-04-22T23:00:57.900Z,61.70
2019-04-22T23:06:15.722Z,61.80
2019-04-22T23:08:38.526Z,61.40
2019-04-22T23:11:11.810Z,61.40
2019-04-22T23:13:37.144Z,61.30
2019-04-22T23:16:00.840Z,60.90
2019-04-22T23:18:19.835Z,61.10
2019-04-22T23:20:51.836Z,61.10
2019-04-22T23:23:39.547Z,60.90
2019-04-22T23:26:14.043Z,61.10
2019-04-22T23:28:57.774Z,61.30
2019-04-22T23:31:23.703Z,61.20
2019-04-22T23:34:21.928Z,61.10
2019-04-22T23:37:25.210Z,61.40
2019-04-22T23:40:14.055Z,61.30
2019-04-22T23:42:32.728Z,60.90
2019-04-22T23:45:12.312Z,61.00
2019-04-22T23:47:30.976Z,61.10
2019-04-22T23:50:11.220Z,61.10
2019-04-22T23:52:48.031Z,61.60
2019-04-22T23:55:17.757Z,61.60
